Time;durP1;ratioP1;P1;durP2;ratioP2;P2;SDS_P1;SDS_P2;PMS_P1;PMS_P2;Temp;Humidity;BMP_temperature;BMP_pressure;BME280_temperature;BME280_humidity;BME280_pressure;Samples;Min_cycle;Max_cycle;Signal;HPM_P1;HPM_P2
2023/06/01 00:01:46;;;;;;;1.98;1.27;;;17.50;99.90;;;;;;5081057;28;20663;-90
2023/06/01 00:04:18;;;;;;;1.48;1.10;;;17.50;99.90;;;;;;5073964;28;20572;-90
2023/06/01 00:06:49;;;;;;;5.60;1.30;;;17.60;99.90;;;;;;5076357;28;20200;-90
2023/06/01 00:09:21;;;;;;;3.30;1.33;;;17.60;99.90;;;;;;5068787;28;20193;-89
2023/06/01 00:11:53;;;;;;;2.45;1.27;;;17.70;99.90;;;;;;5063804;28;20574;-90
2023/06/01 00:14:29;;;;;;;1.65;1.10;;;17.70;99.90;;;;;;5073546;28;20204;-90
2023/06/01 00:17:01;;;;;;;2.90;1.10;;;17.70;99.90;;;;;;5073183;28;20257;-91
2023/06/01 00:19:34;;;;;;;1.73;1.40;;;17.80;99.90;;;;;;5072871;28;20202;-90
2023/06/01 00:22:07;;;;;;;2.53;1.30;;;17.90;99.90;;;;;;5073272;28;20196;-90
2023/06/01 00:24:38;;;;;;;4.38;1.58;;;17.90;99.90;;;;;;5073621;28;20216;-90
2023/06/01 00:27:10;;;;;;;3.45;1.50;;;18.00;99.90;;;;;;5055851;28;20200;-91
2023/06/01 00:29:45;;;;;;;4.05;1.42;;;18.10;99.90;;;;;;5053070;28;20228;-91
2023/06/01 00:32:17;;;;;;;4.43;1.70;;;18.10;99.90;;;;;;5051627;28;20674;-90
2023/06/01 00:34:50;;;;;;;3.22;1.20;;;18.10;99.90;;;;;;5063640;28;20196;-91
2023/06/01 00:37:23;;;;;;;2.45;1.80;;;18.20;99.90;;;;;;5073034;28;20618;-91
2023/06/01 00:39:55;;;;;;;4.68;1.50;;;18.30;99.90;;;;;;5068892;28;20204;-90
2023/06/01 00:42:29;;;;;;;3.67;1.20;;;18.30;99.90;;;;;;5071673;28;20275;-90
2023/06/01 00:45:05;;;;;;;2.63;1.33;;;18.30;99.90;;;;;;5074314;28;20199;-90
2023/06/01 00:47:44;;;;;;;4.82;1.30;;;18.30;99.90;;;;;;5073260;28;20278;-90
2023/06/01 00:50:16;;;;;;;2.10;1.08;;;18.30;99.90;;;;;;5077020;28;20620;-90
2023/06/01 00:52:51;;;;;;;4.18;1.20;;;18.30;99.90;;;;;;5083491;28;20198;-90
2023/06/01 00:55:25;;;;;;;1.85;1.20;;;18.30;99.90;;;;;;5073924;28;20195;-89
2023/06/01 00:57:58;;;;;;;1.58;1.05;;;18.40;99.90;;;;;;5068618;28;20224;-89
2023/06/01 01:00:33;;;;;;;2.55;1.10;;;18.40;99.90;;;;;;5053284;28;20215;-90
2023/06/01 01:03:08;;;;;;;3.15;1.00;;;18.40;99.90;;;;;;5054197;28;20204;-90
2023/06/01 01:05:41;;;;;;;2.03;1.10;;;18.40;99.90;;;;;;5073266;28;20293;-90
2023/06/01 01:08:20;;;;;;;5.22;1.00;;;18.40;99.90;;;;;;5072685;28;20227;-90
2023/06/01 01:11:00;;;;;;;1.42;0.90;;;18.50;99.90;;;;;;5072746;28;20198;-90
2023/06/01 01:13:38;;;;;;;3.63;1.25;;;18.50;99.90;;;;;;5073204;28;20200;-91
2023/06/01 01:16:24;;;;;;;1.80;1.10;;;18.50;99.90;;;;;;5073553;28;20596;-91
2023/06/01 01:19:04;;;;;;;1.73;1.00;;;18.50;99.90;;;;;;5072908;28;20227;-90
2023/06/01 01:21:39;;;;;;;4.85;1.13;;;18.50;99.90;;;;;;5070578;28;20634;-89
2023/06/01 01:24:33;;;;;;;3.35;0.82;;;18.50;99.90;;;;;;5069403;28;20192;-89
2023/06/01 01:27:24;;;;;;;3.97;1.10;;;18.60;99.90;;;;;;5053764;28;20192;-90
2023/06/01 01:30:02;;;;;;;3.15;1.20;;;18.60;99.90;;;;;;5056051;28;20224;-90
2023/06/01 01:32:35;;;;;;;1.02;0.93;;;18.60;99.90;;;;;;5073101;28;20235;-91
2023/06/01 01:35:10;;;;;;;1.00;0.90;;;18.70;99.90;;;;;;5058960;28;20193;-91
2023/06/01 01:37:54;;;;;;;1.92;1.20;;;18.70;99.90;;;;;;5063462;28;20222;-91
2023/06/01 01:40:26;;;;;;;2.28;1.13;;;18.70;99.90;;;;;;5067639;28;20208;-90
2023/06/01 01:42:59;;;;;;;4.15;0.90;;;18.70;99.90;;;;;;5083914;28;20192;-91
2023/06/01 01:45:34;;;;;;;1.23;0.75;;;18.60;99.90;;;;;;5082695;28;20210;-91
2023/06/01 01:48:18;;;;;;;1.15;0.85;;;18.70;99.90;;;;;;5077222;28;20195;-90
2023/06/01 01:50:56;;;;;;;1.10;0.80;;;18.70;99.90;;;;;;5076072;28;20199;-90
2023/06/01 01:53:29;;;;;;;1.27;0.80;;;18.70;99.90;;;;;;5058901;28;20624;-92
2023/06/01 01:56:02;;;;;;;1.60;0.65;;;18.70;99.90;;;;;;5057615;28;20664;-90
2023/06/01 01:58:35;;;;;;;0.95;0.70;;;18.70;99.90;;;;;;5074908;28;20709;-88
2023/06/01 02:01:11;;;;;;;0.93;0.80;;;18.70;99.90;;;;;;5057933;28;20215;-90
2023/06/01 02:03:42;;;;;;;1.20;0.90;;;18.80;99.90;;;;;;5062100;28;20197;-90
2023/06/01 02:06:21;;;;;;;1.63;1.00;;;18.80;99.90;;;;;;5057193;28;20209;-88
2023/06/01 02:08:52;;;;;;;1.90;0.80;;;18.80;99.90;;;;;;5069392;28;20216;-91
2023/06/01 02:11:24;;;;;;;0.73;0.73;;;18.90;99.90;;;;;;5071667;28;20209;-90
2023/06/01 02:13:57;;;;;;;2.63;0.90;;;18.80;99.90;;;;;;5062124;28;20211;-90
2023/06/01 02:16:31;;;;;;;6.20;0.80;;;18.90;99.90;;;;;;5063859;28;20210;-90
2023/06/01 02:19:02;;;;;;;1.58;0.75;;;19.00;99.90;;;;;;5075625;28;20234;-91
2023/06/01 02:21:37;;;;;;;1.65;0.95;;;19.00;99.90;;;;;;5075944;28;20650;-91
2023/06/01 02:24:10;;;;;;;1.40;0.70;;;19.10;99.90;;;;;;5076140;28;20199;-90
2023/06/01 02:26:41;;;;;;;2.45;0.80;;;19.10;99.90;;;;;;5075820;28;20194;-90
2023/06/01 02:29:13;;;;;;;1.63;0.70;;;19.20;99.90;;;;;;5071056;28;20199;-91
2023/06/01 02:31:48;;;;;;;1.85;0.70;;;19.30;99.90;;;;;;5075787;28;20208;-91
2023/06/01 02:34:20;;;;;;;2.70;0.93;;;19.30;99.90;;;;;;5078737;28;20198;-90
2023/06/01 02:36:55;;;;;;;1.45;0.90;;;19.30;99.90;;;;;;5086200;28;20264;-90
2023/06/01 02:39:27;;;;;;;2.22;1.10;;;19.40;99.90;;;;;;5087663;28;20213;-89
2023/06/01 02:41:59;;;;;;;3.45;0.70;;;19.40;99.90;;;;;;5075675;28;20207;-91
2023/06/01 02:44:30;;;;;;;1.98;0.80;;;19.40;99.90;;;;;;5078005;28;20356;-91
2023/06/01 02:47:06;;;;;;;2.45;0.80;;;19.50;99.90;;;;;;5078010;28;20196;-90
2023/06/01 02:49:37;;;;;;;2.75;0.77;;;19.50;99.90;;;;;;5075718;28;20211;-90
2023/06/01 02:52:09;;;;;;;1.27;0.65;;;19.50;99.90;;;;;;5072262;28;20200;-90
2023/06/01 02:54:42;;;;;;;1.08;0.70;;;19.60;99.90;;;;;;5074481;28;20690;-90
2023/06/01 02:57:15;;;;;;;0.85;0.70;;;19.60;99.90;;;;;;5075888;28;20208;-91
2023/06/01 02:59:46;;;;;;;2.83;0.70;;;19.70;99.90;;;;;;5076804;28;20227;-90
2023/06/01 03:02:20;;;;;;;0.95;0.65;;;19.80;99.90;;;;;;5072419;28;20204;-90
2023/06/01 03:04:52;;;;;;;1.83;0.73;;;19.80;99.90;;;;;;5056890;28;20208;-90
2023/06/01 03:07:26;;;;;;;0.90;0.70;;;19.90;99.90;;;;;;5064049;28;20232;-91
2023/06/01 03:09:58;;;;;;;1.25;0.63;;;19.90;99.90;;;;;;5071006;28;20630;-91
2023/06/01 03:12:29;;;;;;;1.52;0.68;;;19.90;99.90;;;;;;5061409;28;20207;-90
2023/06/01 03:15:02;;;;;;;3.25;0.60;;;19.90;99.90;;;;;;5064880;28;20211;-90
2023/06/01 03:17:37;;;;;;;0.98;0.70;;;19.90;99.90;;;;;;5058486;28;20675;-90
2023/06/01 03:20:14;;;;;;;1.02;0.65;;;19.90;99.90;;;;;;5058913;28;20585;-91
2023/06/01 03:22:47;;;;;;;0.65;0.60;;;20.00;99.90;;;;;;5069913;28;20203;-90
2023/06/01 03:25:18;;;;;;;0.85;0.45;;;19.90;99.90;;;;;;5070143;28;20203;-91
2023/06/01 03:27:50;;;;;;;1.67;0.50;;;20.00;99.90;;;;;;5072799;28;20195;-91
2023/06/01 03:30:23;;;;;;;2.35;0.50;;;20.00;99.90;;;;;;5061899;28;20223;-91
2023/06/01 03:32:57;;;;;;;2.90;0.90;;;20.00;99.90;;;;;;5074203;28;20584;-91
2023/06/01 03:35:29;;;;;;;0.73;0.57;;;20.00;99.90;;;;;;5074679;28;20218;-91
2023/06/01 03:38:01;;;;;;;0.55;0.43;;;20.10;99.90;;;;;;5070382;28;20228;-91
2023/06/01 03:40:32;;;;;;;0.63;0.50;;;20.10;99.90;;;;;;5068357;28;20196;-91
2023/06/01 03:43:03;;;;;;;2.53;0.50;;;20.10;99.90;;;;;;5055538;28;20196;-89
2023/06/01 03:45:35;;;;;;;0.30;0.30;;;20.10;99.90;;;;;;5058955;28;20246;-90
2023/06/01 03:48:11;;;;;;;1.17;0.40;;;20.10;99.90;;;;;;5066240;28;20248;-91
2023/06/01 03:50:43;;;;;;;1.00;0.60;;;20.10;99.90;;;;;;5057933;28;20200;-90
2023/06/01 03:53:16;;;;;;;1.27;0.50;;;20.20;99.90;;;;;;5053042;28;20579;-90
2023/06/01 03:55:48;;;;;;;0.50;0.50;;;20.10;99.90;;;;;;5054778;28;20198;-91
2023/06/01 03:58:20;;;;;;;4.18;0.65;;;20.20;99.90;;;;;;5072016;28;20250;-90
2023/06/01 04:00:53;;;;;;;0.90;0.50;;;20.20;99.90;;;;;;5086640;28;20206;-91
2023/06/01 04:03:28;;;;;;;0.88;0.57;;;20.20;99.90;;;;;;5067279;28;20227;-91
2023/06/01 04:06:01;;;;;;;0.93;0.60;;;20.20;99.90;;;;;;5075262;28;20195;-90
2023/06/01 04:08:32;;;;;;;2.75;0.68;;;20.20;99.90;;;;;;5066760;28;20216;-91
2023/06/01 04:11:04;;;;;;;1.70;0.68;;;20.20;99.90;;;;;;5075275;28;20201;-91
2023/06/01 04:13:35;;;;;;;2.88;0.65;;;20.20;99.90;;;;;;5075188;28;20196;-90
2023/06/01 04:16:07;;;;;;;1.05;0.80;;;20.20;99.90;;;;;;5091150;28;20204;-87
2023/06/01 04:18:41;;;;;;;2.10;0.52;;;20.20;99.90;;;;;;5094147;28;20226;-88
2023/06/01 04:21:14;;;;;;;0.70;0.70;;;20.20;99.90;;;;;;5092551;28;20199;-90
2023/06/01 04:23:48;;;;;;;1.27;0.60;;;20.30;99.90;;;;;;5078422;28;20199;-90
2023/06/01 04:26:20;;;;;;;1.13;0.70;;;20.30;99.90;;;;;;5074085;28;20202;-90
2023/06/01 04:28:56;;;;;;;1.33;0.70;;;20.30;99.90;;;;;;5073956;28;20204;-90
2023/06/01 04:31:27;;;;;;;0.55;0.50;;;20.40;99.90;;;;;;5073829;28;20250;-90
2023/06/01 04:34:05;;;;;;;1.17;0.50;;;20.30;99.90;;;;;;5073746;28;20299;-91
2023/06/01 04:36:41;;;;;;;2.75;0.70;;;20.40;99.90;;;;;;5074064;28;20344;-90
2023/06/01 04:39:13;;;;;;;1.55;0.77;;;20.40;99.90;;;;;;5075283;28;20231;-91
2023/06/01 04:41:46;;;;;;;1.20;0.80;;;20.40;99.90;;;;;;5072660;28;20215;-91
2023/06/01 04:44:21;;;;;;;1.27;0.70;;;20.40;99.90;;;;;;5073633;28;20283;-90
2023/06/01 04:46:54;;;;;;;0.98;0.73;;;20.40;99.90;;;;;;5062966;28;20192;-90
2023/06/01 04:49:30;;;;;;;1.27;0.60;;;20.40;99.90;;;;;;5061835;28;20214;-90
2023/06/01 04:52:02;;;;;;;2.75;0.60;;;20.40;99.90;;;;;;5073081;28;20210;-90
2023/06/01 04:54:34;;;;;;;0.82;0.70;;;20.40;99.90;;;;;;5057187;28;20207;-90
2023/06/01 04:57:07;;;;;;;1.45;0.80;;;20.40;99.90;;;;;;5053598;28;20207;-91
2023/06/01 04:59:41;;;;;;;1.70;0.90;;;20.50;99.90;;;;;;5059185;28;20638;-90
2023/06/01 05:02:14;;;;;;;1.08;0.70;;;20.40;99.90;;;;;;5054670;28;20249;-91
2023/06/01 05:04:47;;;;;;;0.82;0.80;;;20.40;99.90;;;;;;5053230;28;20215;-91
2023/06/01 05:07:21;;;;;;;1.67;0.75;;;20.50;99.90;;;;;;5065083;28;20224;-91
2023/06/01 05:09:53;;;;;;;1.58;0.95;;;20.50;99.90;;;;;;5053285;28;20204;-91
2023/06/01 05:12:27;;;;;;;1.75;0.80;;;20.40;99.90;;;;;;5053390;28;20200;-91
2023/06/01 05:14:58;;;;;;;2.20;1.70;;;20.40;99.90;;;;;;5060617;28;20235;-92
2023/06/01 05:17:30;;;;;;;1.00;1.00;;;20.40;99.90;;;;;;5081980;28;20192;-91
2023/06/01 05:20:05;;;;;;;2.67;1.20;;;20.40;99.90;;;;;;5073454;28;20243;-90
2023/06/01 05:22:36;;;;;;;1.98;1.20;;;20.40;99.90;;;;;;5055916;28;20255;-90
2023/06/01 05:25:11;;;;;;;1.67;1.02;;;20.40;99.90;;;;;;5062122;28;20207;-90
2023/06/01 05:27:46;;;;;;;2.95;1.10;;;20.30;99.90;;;;;;5073669;28;20199;-91
2023/06/01 05:30:18;;;;;;;3.78;1.23;;;20.40;99.90;;;;;;5072469;28;20235;-90
2023/06/01 05:32:50;;;;;;;1.88;1.17;;;20.30;99.90;;;;;;5073719;28;20203;-91
2023/06/01 05:35:24;;;;;;;2.05;1.45;;;20.30;99.90;;;;;;5062572;28;20200;-90
2023/06/01 05:37:57;;;;;;;3.00;1.20;;;20.30;99.90;;;;;;5069326;28;20681;-91
2023/06/01 05:40:29;;;;;;;1.80;1.10;;;20.20;99.90;;;;;;5071420;28;20231;-91
2023/06/01 05:43:00;;;;;;;2.50;1.00;;;20.20;99.90;;;;;;5072368;28;20211;-91
2023/06/01 05:45:31;;;;;;;3.92;1.08;;;20.20;99.90;;;;;;5071435;28;20212;-91
2023/06/01 05:48:02;;;;;;;1.35;0.88;;;20.30;99.90;;;;;;5064238;28;20197;-90
2023/06/01 05:50:37;;;;;;;1.65;0.80;;;20.30;99.90;;;;;;5058192;28;20665;-89
2023/06/01 05:53:09;;;;;;;3.42;1.05;;;20.30;99.90;;;;;;5054878;28;20204;-91
2023/06/01 05:55:40;;;;;;;1.63;0.95;;;20.50;99.90;;;;;;5052796;28;20197;-91
2023/06/01 05:58:11;;;;;;;2.38;0.90;;;20.50;99.90;;;;;;5064715;28;20193;-91
2023/06/01 06:00:44;;;;;;;2.05;0.95;;;20.60;99.90;;;;;;5052683;28;20266;-90
2023/06/01 06:03:16;;;;;;;2.28;0.93;;;20.70;99.90;;;;;;5052834;28;20207;-90
2023/06/01 06:05:52;;;;;;;1.85;1.00;;;20.70;99.90;;;;;;5052674;28;20200;-90
2023/06/01 06:08:24;;;;;;;2.90;1.20;;;20.80;99.90;;;;;;5052775;28;20247;-91
2023/06/01 06:10:56;;;;;;;3.03;1.13;;;20.80;99.90;;;;;;5052107;28;20205;-91
2023/06/01 06:13:27;;;;;;;2.25;1.02;;;20.80;99.90;;;;;;5051600;28;20280;-91
2023/06/01 06:16:00;;;;;;;2.30;1.10;;;21.00;99.90;;;;;;5052321;28;20201;-90
2023/06/01 06:18:32;;;;;;;2.10;1.10;;;21.00;99.90;;;;;;5051262;28;20200;-90
2023/06/01 06:21:05;;;;;;;1.98;1.00;;;21.00;99.90;;;;;;5055921;28;20212;-91
2023/06/01 06:23:37;;;;;;;1.60;1.00;;;21.20;99.90;;;;;;5055349;28;20208;-91
2023/06/01 06:26:08;;;;;;;1.98;0.85;;;21.20;99.90;;;;;;5056219;28;20196;-90
2023/06/01 06:28:39;;;;;;;2.45;1.08;;;21.20;99.90;;;;;;5055320;28;20196;-91
2023/06/01 06:31:11;;;;;;;3.40;1.00;;;21.20;99.90;;;;;;5061701;28;20228;-89
2023/06/01 06:33:44;;;;;;;2.20;1.00;;;21.20;99.90;;;;;;5075786;28;20215;-91
2023/06/01 06:36:20;;;;;;;2.75;1.23;;;21.00;99.90;;;;;;5071480;28;20211;-90
2023/06/01 06:38:51;;;;;;;2.65;1.27;;;21.00;99.90;;;;;;5071769;28;20214;-90
2023/06/01 06:41:24;;;;;;;1.55;0.90;;;20.90;99.90;;;;;;5060777;28;20199;-91
2023/06/01 06:43:57;;;;;;;2.65;1.13;;;20.80;99.90;;;;;;5075117;28;20400;-91
2023/06/01 06:46:29;;;;;;;3.47;1.40;;;20.70;99.90;;;;;;5078062;28;20195;-88
2023/06/01 06:49:00;;;;;;;3.25;1.10;;;20.60;99.90;;;;;;5085545;28;20295;-88
2023/06/01 06:51:36;;;;;;;2.78;0.98;;;20.50;99.90;;;;;;5084353;28;20283;-89
2023/06/01 06:54:08;;;;;;;2.22;1.10;;;20.40;99.90;;;;;;5066290;28;20188;-89
2023/06/01 06:56:40;;;;;;;1.75;0.85;;;20.30;99.90;;;;;;5070955;28;20184;-88
2023/06/01 06:59:14;;;;;;;2.00;0.90;;;20.20;99.90;;;;;;5076097;28;20710;-90
2023/06/01 07:01:46;;;;;;;4.03;1.50;;;20.10;99.90;;;;;;5075276;28;20216;-89
2023/06/01 07:04:20;;;;;;;3.33;1.73;;;19.90;99.90;;;;;;5074938;28;20200;-89
2023/06/01 07:06:54;;;;;;;5.70;2.10;;;19.70;99.90;;;;;;5074843;28;20215;-89
2023/06/01 07:09:26;;;;;;;7.88;1.80;;;19.70;99.90;;;;;;5074833;28;20267;-89
2023/06/01 07:11:58;;;;;;;4.38;1.83;;;19.70;99.90;;;;;;5076047;28;20202;-89
2023/06/01 07:14:29;;;;;;;2.30;1.55;;;19.70;99.90;;;;;;5075097;28;20199;-89
2023/06/01 07:17:01;;;;;;;4.07;1.85;;;19.70;99.90;;;;;;5074832;28;20203;-89
2023/06/01 07:19:32;;;;;;;3.45;1.60;;;19.70;99.90;;;;;;5074679;28;20220;-88
2023/06/01 07:22:06;;;;;;;3.78;1.95;;;19.70;99.90;;;;;;5075151;28;20261;-89
2023/06/01 07:24:37;;;;;;;2.83;1.50;;;19.70;99.90;;;;;;5075134;28;20210;-89
2023/06/01 07:27:09;;;;;;;4.25;2.40;;;19.70;99.90;;;;;;5075443;28;20211;-89
2023/06/01 07:29:44;;;;;;;20.20;16.90;;;19.70;99.90;;;;;;5075714;28;20232;-90
2023/06/01 07:32:16;;;;;;;46.65;39.38;;;19.60;99.90;;;;;;5074216;28;20208;-88
2023/06/01 07:34:48;;;;;;;19.25;15.27;;;19.60;99.90;;;;;;5074588;28;20210;-89
2023/06/01 07:37:23;;;;;;;14.00;10.73;;;19.50;99.90;;;;;;5074535;28;20200;-89
2023/06/01 07:39:54;;;;;;;9.75;7.43;;;19.40;99.90;;;;;;5064319;28;20230;-89
2023/06/01 07:42:27;;;;;;;219.75;146.15;;;19.30;99.90;;;;;;5055208;28;20204;-89
2023/06/01 07:44:59;;;;;;;152.15;105.93;;;19.20;99.90;;;;;;5055097;28;20201;-90
2023/06/01 07:47:30;;;;;;;36.10;28.00;;;19.10;99.90;;;;;;5054374;28;20213;-90
2023/06/01 07:50:02;;;;;;;10.38;9.05;;;19.10;99.90;;;;;;5057445;28;20203;-89
2023/06/01 07:52:38;;;;;;;14.25;11.10;;;19.00;99.90;;;;;;5067329;28;20207;-88
2023/06/01 07:55:12;;;;;;;14.50;11.48;;;18.90;99.90;;;;;;5090094;28;20219;-88
2023/06/01 07:57:44;;;;;;;16.25;10.43;;;18.90;99.90;;;;;;5077550;28;20603;-90
2023/06/01 08:00:17;;;;;;;13.63;10.13;;;18.80;99.90;;;;;;5056229;28;20220;-88
2023/06/01 08:02:54;;;;;;;10.95;8.48;;;18.80;99.90;;;;;;5059679;28;20197;-89
2023/06/01 08:05:29;;;;;;;17.13;13.35;;;18.70;99.90;;;;;;5063184;28;20678;-89
2023/06/01 08:08:05;;;;;;;15.63;11.38;;;18.70;99.90;;;;;;5076454;28;20215;-89
2023/06/01 08:10:39;;;;;;;14.65;10.32;;;18.60;99.90;;;;;;5073719;28;20199;-88
2023/06/01 08:13:14;;;;;;;13.43;10.57;;;18.60;99.90;;;;;;5074983;28;20667;-89
2023/06/01 08:15:47;;;;;;;12.35;8.73;;;18.60;99.90;;;;;;5077302;28;20759;-90
2023/06/01 08:18:19;;;;;;;14.02;11.27;;;18.60;99.90;;;;;;5076006;28;20184;-89
2023/06/01 08:20:50;;;;;;;21.92;18.10;;;18.60;99.90;;;;;;5074038;28;20243;-89
2023/06/01 08:23:26;;;;;;;15.55;13.48;;;18.50;99.90;;;;;;5074402;28;20196;-90
2023/06/01 08:25:57;;;;;;;11.18;8.50;;;18.50;99.90;;;;;;5074573;28;20624;-88
2023/06/01 08:28:32;;;;;;;10.77;7.63;;;18.50;99.90;;;;;;5073406;28;20199;-90
2023/06/01 08:31:04;;;;;;;8.57;6.15;;;18.50;99.90;;;;;;5074395;28;20230;-89
2023/06/01 08:33:36;;;;;;;7.97;5.20;;;18.40;99.90;;;;;;5073601;28;20610;-89
2023/06/01 08:36:10;;;;;;;6.72;5.55;;;18.30;99.90;;;;;;5076108;28;20192;-89
2023/06/01 08:38:46;;;;;;;10.80;8.70;;;18.30;99.90;;;;;;5074542;28;20196;-89
2023/06/01 08:41:27;;;;;;;11.48;8.57;;;18.20;99.90;;;;;;5074679;28;20223;-89
2023/06/01 08:44:04;;;;;;;14.52;9.15;;;18.10;99.90;;;;;;5074747;28;20200;-89
2023/06/01 08:46:36;;;;;;;10.13;8.13;;;18.00;99.90;;;;;;5074813;28;20229;-89
2023/06/01 08:49:10;;;;;;;10.27;7.45;;;18.00;99.90;;;;;;5074589;28;20602;-89
2023/06/01 08:51:44;;;;;;;8.43;6.70;;;18.00;99.90;;;;;;5075588;28;20215;-88
2023/06/01 08:54:20;;;;;;;10.40;7.68;;;18.00;99.90;;;;;;5075374;28;20208;-89
2023/06/01 08:56:52;;;;;;;12.43;8.25;;;18.00;99.90;;;;;;5075037;28;20234;-89
2023/06/01 08:59:23;;;;;;;10.23;8.48;;;18.00;99.90;;;;;;5075514;28;20286;-89
2023/06/01 09:01:58;;;;;;;10.40;7.50;;;18.00;99.90;;;;;;5075105;28;20192;-89
2023/06/01 09:04:31;;;;;;;8.38;5.50;;;18.00;99.90;;;;;;5086761;28;20191;-85
2023/06/01 09:07:03;;;;;;;10.50;5.00;;;18.00;99.90;;;;;;5096735;28;20263;-87
2023/06/01 09:09:38;;;;;;;10.68;5.65;;;18.00;99.90;;;;;;5096548;28;20252;-88
2023/06/01 09:12:25;;;;;;;6.95;4.97;;;18.00;99.90;;;;;;5096517;28;20197;-88
2023/06/01 09:15:11;;;;;;;9.20;4.80;;;18.00;99.90;;;;;;5096183;28;20183;-89
2023/06/01 09:17:46;;;;;;;7.60;5.00;;;18.10;99.90;;;;;;5097092;28;20209;-87
2023/06/01 09:20:25;;;;;;;10.50;6.10;;;18.10;99.90;;;;;;5096004;28;20227;-89
2023/06/01 09:22:58;;;;;;;12.00;7.07;;;18.10;99.90;;;;;;5095810;28;20192;-88
2023/06/01 09:25:33;;;;;;;19.88;12.93;;;18.10;99.90;;;;;;5096009;28;20175;-88
2023/06/01 09:28:06;;;;;;;58.35;47.53;;;18.10;99.90;;;;;;5093087;28;20183;-86
2023/06/01 09:30:47;;;;;;;21.35;16.02;;;18.10;99.90;;;;;;5090297;28;20242;-88
2023/06/01 09:33:20;;;;;;;16.27;10.40;;;18.00;99.90;;;;;;5080294;28;20700;-89
2023/06/01 09:35:53;;;;;;;16.00;10.32;;;18.00;99.90;;;;;;5080141;28;20204;-90
2023/06/01 09:38:31;;;;;;;11.32;7.90;;;18.00;99.90;;;;;;5077486;28;20208;-90
2023/06/01 09:41:07;;;;;;;6.72;5.50;;;17.90;99.90;;;;;;5078306;28;20253;-90
2023/06/01 09:43:39;;;;;;;10.15;5.97;;;17.90;99.90;;;;;;5076265;28;20211;-89
2023/06/01 09:46:13;;;;;;;6.63;4.63;;;17.90;99.90;;;;;;5077205;28;20265;-89
2023/06/01 09:48:46;;;;;;;6.47;4.13;;;17.90;99.90;;;;;;5075955;28;20200;-89
2023/06/01 09:51:29;;;;;;;8.38;5.10;;;17.90;99.90;;;;;;5075691;28;20283;-89
2023/06/01 09:54:03;;;;;;;12.98;7.03;;;17.80;99.90;;;;;;5077024;28;20200;-89
2023/06/01 09:56:46;;;;;;;9.38;6.68;;;17.70;99.90;;;;;;5079933;28;20647;-89
2023/06/01 09:59:18;;;;;;;8.60;5.57;;;17.70;99.90;;;;;;5085061;28;20196;-89
2023/06/01 10:01:57;;;;;;;9.20;5.53;;;17.70;99.90;;;;;;5091309;28;20228;-90
2023/06/01 10:04:29;;;;;;;11.38;5.05;;;17.70;99.90;;;;;;5079072;28;20200;-90
2023/06/01 10:07:02;;;;;;;8.00;5.03;;;17.70;99.90;;;;;;5078517;28;20230;-90
2023/06/01 10:09:34;;;;;;;11.13;4.82;;;17.70;99.90;;;;;;5077715;28;20274;-89
2023/06/01 10:12:11;;;;;;;11.70;4.30;;;17.70;99.90;;;;;;5079424;28;20571;-87
2023/06/01 10:14:45;;;;;;;15.15;4.78;;;17.80;99.90;;;;;;5078931;28;20573;-89
2023/06/01 10:17:19;;;;;;;13.32;4.63;;;17.80;99.90;;;;;;5078134;28;20196;-90
2023/06/01 10:19:51;;;;;;;18.67;4.88;;;17.90;99.90;;;;;;5080452;28;20577;-89
2023/06/01 10:22:24;;;;;;;16.40;5.07;;;17.90;99.90;;;;;;5082688;28;20187;-90
2023/06/01 10:25:00;;;;;;;15.25;4.47;;;18.00;99.90;;;;;;5078804;28;20211;-88
2023/06/01 10:27:55;;;;;;;15.05;4.35;;;18.00;99.90;;;;;;5078286;28;20200;-89
2023/06/01 10:30:27;;;;;;;14.02;3.85;;;18.00;99.90;;;;;;5077405;28;20243;-89
2023/06/01 10:33:00;;;;;;;14.60;4.13;;;18.00;99.90;;;;;;5077917;28;20192;-89
2023/06/01 10:36:05;;;;;;;16.13;4.32;;;18.00;99.90;;;;;;5082065;28;20203;-88
2023/06/01 10:38:36;;;;;;;13.25;3.78;;;18.00;99.90;;;;;;5083650;28;20187;-89
2023/06/01 10:41:32;;;;;;;10.88;3.60;;;17.90;99.90;;;;;;5085922;28;20223;-88
2023/06/01 10:44:08;;;;;;;15.82;3.80;;;17.90;99.90;;;;;;5077547;28;20203;-89
2023/06/01 10:46:46;;;;;;;16.38;4.18;;;17.90;99.90;;;;;;5076395;28;20218;-89
2023/06/01 10:49:17;;;;;;;14.52;4.30;;;17.90;99.90;;;;;;5081194;28;20207;-88
2023/06/01 10:51:49;;;;;;;15.60;4.85;;;17.80;99.90;;;;;;5078106;28;20196;-89
2023/06/01 10:54:34;;;;;;;15.93;5.40;;;17.70;99.90;;;;;;5078367;28;20243;-89
2023/06/01 10:57:27;;;;;;;17.25;6.50;;;17.70;99.90;;;;;;5078205;28;20666;-89
2023/06/01 11:00:28;;;;;;;17.02;7.85;;;17.70;99.90;;;;;;5078294;28;20196;-90
2023/06/01 11:03:04;;;;;;;19.25;7.60;;;17.70;99.90;;;;;;5079581;28;20244;-90
2023/06/01 11:05:47;;;;;;;15.30;6.80;;;17.70;99.90;;;;;;5075734;28;20253;-90
2023/06/01 11:08:55;;;;;;;17.40;6.80;;;17.60;99.90;;;;;;5078522;28;20212;-87
2023/06/01 11:11:26;;;;;;;18.73;6.28;;;17.60;99.90;;;;;;5076578;28;20207;-89
2023/06/01 11:14:16;;;;;;;16.23;5.18;;;17.60;99.90;;;;;;5075239;28;20223;-89
2023/06/01 11:16:50;;;;;;;18.60;5.55;;;17.60;99.90;;;;;;5077630;28;20196;-88
2023/06/01 11:19:35;;;;;;;16.50;4.97;;;17.60;99.90;;;;;;5077176;28;20325;-89
2023/06/01 11:22:07;;;;;;;14.25;4.82;;;17.60;99.90;;;;;;5054640;28;20228;-89
2023/06/01 11:24:40;;;;;;;19.08;4.57;;;17.60;99.90;;;;;;5055927;28;20216;-89
2023/06/01 11:27:13;;;;;;;14.65;4.05;;;17.60;99.90;;;;;;5055212;28;20197;-89
2023/06/01 11:29:51;;;;;;;16.77;4.45;;;17.60;99.90;;;;;;5066991;28;20280;-90
2023/06/01 11:32:36;;;;;;;19.08;3.92;;;17.60;99.90;;;;;;5076326;28;20200;-89
2023/06/01 11:35:22;;;;;;;13.70;3.15;;;17.70;99.90;;;;;;5078659;28;20203;-89
2023/06/01 11:37:59;;;;;;;14.10;3.60;;;17.70;99.90;;;;;;5065521;28;20197;-90
2023/06/01 11:40:31;;;;;;;19.70;3.70;;;17.70;99.90;;;;;;5056084;28;20270;-89
2023/06/01 11:43:18;;;;;;;15.43;3.78;;;17.70;99.90;;;;;;5057824;28;20276;-88
2023/06/01 11:46:04;;;;;;;18.33;3.97;;;17.80;99.90;;;;;;5065022;28;20204;-89
2023/06/01 11:48:40;;;;;;;19.85;3.90;;;17.80;99.90;;;;;;5061378;28;20189;-89
2023/06/01 11:54:00;;;;;;;20.67;4.32;;;18.00;99.90;;;;;;5078372;28;20276;-91
2023/06/01 11:59:28;;;;;;;23.38;4.68;;;18.00;99.90;;;;;;5085139;28;20188;-88
2023/06/01 12:02:00;;;;;;;18.85;4.03;;;18.00;99.90;;;;;;5082452;28;20706;-89
2023/06/01 12:04:44;;;;;;;22.05;4.18;;;18.10;99.90;;;;;;5082986;28;20275;-88
2023/06/01 12:07:20;;;;;;;19.33;3.92;;;18.10;99.90;;;;;;5087195;28;20263;-89
2023/06/01 12:09:54;;;;;;;18.85;4.10;;;18.10;99.90;;;;;;5092043;28;20210;-90
2023/06/01 12:12:29;;;;;;;18.25;4.18;;;18.00;99.90;;;;;;5084013;28;20286;-90
2023/06/01 12:15:04;;;;;;;15.82;3.67;;;18.00;99.90;;;;;;5088340;28;20598;-89
2023/06/01 12:17:55;;;;;;;17.60;3.30;;;18.00;99.90;;;;;;5088161;28;20275;-91
2023/06/01 12:20:54;;;;;;;18.00;4.03;;;17.90;99.90;;;;;;5089244;28;20232;-90
2023/06/01 12:23:33;;;;;;;18.67;4.40;;;17.90;99.90;;;;;;5085015;28;20203;-90
2023/06/01 12:26:09;;;;;;;16.83;4.20;;;17.80;99.90;;;;;;5084458;28;20184;-89
2023/06/01 12:29:06;;;;;;;18.85;4.63;;;17.80;99.90;;;;;;5085519;28;20214;-90
2023/06/01 12:31:40;;;;;;;14.10;3.72;;;17.70;99.90;;;;;;5040468;28;20205;-90
2023/06/01 12:34:20;;;;;;;16.42;4.10;;;17.70;99.90;;;;;;5041094;28;20204;-90
2023/06/01 12:37:00;;;;;;;18.13;4.53;;;17.70;99.90;;;;;;5040558;28;20283;-90
2023/06/01 12:39:45;;;;;;;17.70;3.88;;;17.70;99.90;;;;;;5040432;28;20251;-90
2023/06/01 12:42:20;;;;;;;20.75;4.45;;;17.70;99.90;;;;;;5040949;28;20283;-89
2023/06/01 12:44:58;;;;;;;16.17;3.58;;;17.60;99.90;;;;;;5037704;28;20212;-88
2023/06/01 12:47:49;;;;;;;18.48;4.35;;;17.60;99.90;;;;;;5046560;28;20656;-88
2023/06/01 12:50:21;;;;;;;19.70;4.07;;;17.60;99.90;;;;;;5041644;28;20205;-91
2023/06/01 12:52:56;;;;;;;14.55;3.97;;;17.60;99.90;;;;;;5041461;28;20216;-89
2023/06/01 12:55:37;;;;;;;18.83;3.92;;;17.70;99.90;;;;;;5042236;28;20302;-88
2023/06/01 12:58:16;;;;;;;22.05;4.53;;;17.70;99.90;;;;;;5041247;28;20255;-89
2023/06/01 13:00:48;;;;;;;18.92;4.20;;;17.70;99.90;;;;;;5041798;28;20287;-89
2023/06/01 13:03:23;;;;;;;16.65;3.38;;;17.70;99.90;;;;;;5041427;28;20193;-90
2023/06/01 13:06:06;;;;;;;17.58;3.78;;;17.70;99.90;;;;;;5041713;28;20201;-91
2023/06/01 13:08:47;;;;;;;18.67;3.72;;;17.70;99.90;;;;;;5040280;28;20228;-90
2023/06/01 13:11:26;;;;;;;17.13;4.32;;;17.70;99.90;;;;;;5022886;28;20194;-90
2023/06/01 13:14:02;;;;;;;16.73;3.72;;;17.70;99.90;;;;;;5023255;28;20257;-90
2023/06/01 13:16:39;;;;;;;14.43;3.25;;;17.60;99.90;;;;;;5031005;28;20189;-89
2023/06/01 13:19:12;;;;;;;16.38;3.65;;;17.60;99.90;;;;;;5032921;28;20211;-90
2023/06/01 13:25:05;;;;;;;16.02;4.30;;;17.60;99.90;;;;;;5048863;28;20220;-90
2023/06/01 13:27:37;;;;;;;13.35;3.65;;;17.50;99.90;;;;;;5046137;28;20201;-90
2023/06/01 13:30:10;;;;;;;18.50;3.90;;;17.40;99.90;;;;;;5062693;28;20220;-90
2023/06/01 13:32:50;;;;;;;18.63;3.90;;;17.40;99.90;;;;;;5087110;28;20215;-88